sensor_id;sensor_type;location;lat;lon;timestamp;pressure;altitude;pressure_sealevel;temperature;humidity
48244;BME280;34053;51.088;6.572;2023-04-29T00:01:44;100757.19;;;13.66;70.24
48244;BME280;34053;51.088;6.572;2023-04-29T00:04:14;100752.63;;;13.48;71.22
48244;BME280;34053;51.088;6.572;2023-04-29T00:06:45;100750.38;;;13.38;71.79
48244;BME280;34053;51.088;6.572;2023-04-29T00:09:16;100750.53;;;13.58;71.51
48244;BME280;34053;51.088;6.572;2023-04-29T00:11:47;100753.09;;;13.81;69.78
48244;BME280;34053;51.088;6.572;2023-04-29T00:14:19;100758.63;;;13.75;70.20
48244;BME280;34053;51.088;6.572;2023-04-29T00:16:50;100757.78;;;13.27;72.13
48244;BME280;34053;51.088;6.572;2023-04-29T00:19:20;100766.31;;;13.10;72.31
48244;BME280;34053;51.088;6.572;2023-04-29T00:21:51;100768.59;;;13.45;71.02
48244;BME280;34053;51.088;6.572;2023-04-29T00:24:23;100766.19;;;13.38;71.28
48244;BME280;34053;51.088;6.572;2023-04-29T00:26:54;100769.66;;;13.15;71.91
48244;BME280;34053;51.088;6.572;2023-04-29T00:29:24;100766.53;;;13.28;71.54
48244;BME280;34053;51.088;6.572;2023-04-29T00:31:55;100777.31;;;13.47;70.52
48244;BME280;34053;51.088;6.572;2023-04-29T00:34:25;100778.06;;;13.25;71.32
48244;BME280;34053;51.088;6.572;2023-04-29T00:36:56;100781.78;;;13.19;71.20
48244;BME280;34053;51.088;6.572;2023-04-29T00:39:26;100791.38;;;12.97;72.36
48244;BME280;34053;51.088;6.572;2023-04-29T00:41:57;100788.84;;;12.94;72.88
48244;BME280;34053;51.088;6.572;2023-04-29T00:44:27;100799.56;;;12.89;72.72
48244;BME280;34053;51.088;6.572;2023-04-29T00:46:57;100794.00;;;13.22;70.93
48244;BME280;34053;51.088;6.572;2023-04-29T00:49:28;100795.25;;;13.12;71.21
48244;BME280;34053;51.088;6.572;2023-04-29T00:51:59;100793.59;;;13.33;70.45
48244;BME280;34053;51.088;6.572;2023-04-29T00:54:29;100801.53;;;13.07;71.28
48244;BME280;34053;51.088;6.572;2023-04-29T00:57:01;100798.31;;;12.99;71.47
48244;BME280;34053;51.088;6.572;2023-04-29T00:59:33;100798.28;;;13.01;71.17
48244;BME280;34053;51.088;6.572;2023-04-29T01:02:03;100801.19;;;13.17;70.54
48244;BME280;34053;51.088;6.572;2023-04-29T01:04:34;100811.66;;;13.18;70.45
48244;BME280;34053;51.088;6.572;2023-04-29T01:07:25;100814.28;;;12.95;71.66
48244;BME280;34053;51.088;6.572;2023-04-29T01:10:26;100817.06;;;12.65;73.16
48244;BME280;34053;51.088;6.572;2023-04-29T01:13:06;100812.44;;;12.46;73.37
48244;BME280;34053;51.088;6.572;2023-04-29T01:18:22;100825.28;;;12.28;74.92
48244;BME280;34053;51.088;6.572;2023-04-29T01:20:56;100817.16;;;12.62;73.28
48244;BME280;34053;51.088;6.572;2023-04-29T01:23:29;100822.75;;;12.52;73.96
48244;BME280;34053;51.088;6.572;2023-04-29T01:26:00;100820.13;;;12.25;75.11
48244;BME280;34053;51.088;6.572;2023-04-29T01:28:42;100828.38;;;12.15;75.74
48244;BME280;34053;51.088;6.572;2023-04-29T01:31:46;100831.91;;;12.40;74.44
48244;BME280;34053;51.088;6.572;2023-04-29T01:34:29;100831.13;;;12.38;74.90
48244;BME280;34053;51.088;6.572;2023-04-29T01:37:09;100834.63;;;12.10;75.89
48244;BME280;34053;51.088;6.572;2023-04-29T01:43:03;100840.56;;;12.44;74.44
48244;BME280;34053;51.088;6.572;2023-04-29T01:45:37;100833.19;;;12.55;73.44
48244;BME280;34053;51.088;6.572;2023-04-29T01:48:10;100841.06;;;12.02;77.05
48244;BME280;34053;51.088;6.572;2023-04-29T01:50:41;100834.00;;;12.31;75.02
48244;BME280;34053;51.088;6.572;2023-04-29T01:53:12;100840.06;;;12.33;75.61
48244;BME280;34053;51.088;6.572;2023-04-29T01:55:42;100840.19;;;11.70;78.97
48244;BME280;34053;51.088;6.572;2023-04-29T01:58:13;100845.91;;;12.14;76.26
48244;BME280;34053;51.088;6.572;2023-04-29T02:00:43;100842.84;;;12.55;73.80
48244;BME280;34053;51.088;6.572;2023-04-29T02:03:14;100847.75;;;11.82;78.05
48244;BME280;34053;51.088;6.572;2023-04-29T02:05:45;100845.81;;;12.17;75.53
48244;BME280;34053;51.088;6.572;2023-04-29T02:08:16;100841.63;;;12.11;75.73
48244;BME280;34053;51.088;6.572;2023-04-29T02:10:53;100845.53;;;11.96;76.72
48244;BME280;34053;51.088;6.572;2023-04-29T02:13:24;100843.47;;;12.08;76.27
48244;BME280;34053;51.088;6.572;2023-04-29T02:15:54;100853.84;;;11.82;77.39
48244;BME280;34053;51.088;6.572;2023-04-29T02:18:25;100857.88;;;11.94;76.47
48244;BME280;34053;51.088;6.572;2023-04-29T02:20:59;100859.88;;;11.86;76.85
48244;BME280;34053;51.088;6.572;2023-04-29T02:23:30;100858.88;;;11.90;76.92
48244;BME280;34053;51.088;6.572;2023-04-29T02:26:01;100854.28;;;11.99;76.50
48244;BME280;34053;51.088;6.572;2023-04-29T02:28:34;100858.34;;;12.09;75.49
48244;BME280;34053;51.088;6.572;2023-04-29T02:31:31;100862.47;;;11.88;76.60
48244;BME280;34053;51.088;6.572;2023-04-29T02:34:04;100870.50;;;11.83;77.11
48244;BME280;34053;51.088;6.572;2023-04-29T02:36:35;100868.69;;;12.15;75.26
48244;BME280;34053;51.088;6.572;2023-04-29T02:39:05;100871.22;;;11.88;76.52
48244;BME280;34053;51.088;6.572;2023-04-29T02:41:36;100878.78;;;11.69;77.72
48244;BME280;34053;51.088;6.572;2023-04-29T02:44:07;100884.09;;;11.68;78.11
48244;BME280;34053;51.088;6.572;2023-04-29T02:46:38;100896.34;;;11.69;78.46
48244;BME280;34053;51.088;6.572;2023-04-29T02:49:12;100894.47;;;11.72;78.72
48244;BME280;34053;51.088;6.572;2023-04-29T02:51:43;100897.63;;;11.54;79.50
48244;BME280;34053;51.088;6.572;2023-04-29T02:54:14;100897.94;;;11.43;80.39
48244;BME280;34053;51.088;6.572;2023-04-29T02:56:45;100900.94;;;11.90;77.47
48244;BME280;34053;51.088;6.572;2023-04-29T02:59:16;100906.78;;;11.39;80.32
48244;BME280;34053;51.088;6.572;2023-04-29T03:01:46;100900.63;;;11.40;80.46
48244;BME280;34053;51.088;6.572;2023-04-29T03:04:17;100911.38;;;11.32;80.54
48244;BME280;34053;51.088;6.572;2023-04-29T03:06:48;100911.31;;;11.00;82.08
48244;BME280;34053;51.088;6.572;2023-04-29T03:09:18;100918.94;;;11.10;81.39
48244;BME280;34053;51.088;6.572;2023-04-29T03:11:50;100915.25;;;11.50;78.87
48244;BME280;34053;51.088;6.572;2023-04-29T03:14:21;100920.75;;;11.08;81.14
48244;BME280;34053;51.088;6.572;2023-04-29T03:16:51;100915.13;;;10.89;82.08
48244;BME280;34053;51.088;6.572;2023-04-29T03:19:22;100917.19;;;10.76;81.83
48244;BME280;34053;51.088;6.572;2023-04-29T03:21:52;100924.28;;;10.70;82.29
48244;BME280;34053;51.088;6.572;2023-04-29T03:24:23;100917.63;;;10.93;81.29
48244;BME280;34053;51.088;6.572;2023-04-29T03:26:53;100927.28;;;10.91;81.13
48244;BME280;34053;51.088;6.572;2023-04-29T03:29:23;100926.00;;;11.08;80.05
48244;BME280;34053;51.088;6.572;2023-04-29T03:31:54;100920.09;;;10.99;80.33
48244;BME280;34053;51.088;6.572;2023-04-29T03:34:26;100930.41;;;11.06;79.78
48244;BME280;34053;51.088;6.572;2023-04-29T03:36:56;100930.19;;;11.15;79.29
48244;BME280;34053;51.088;6.572;2023-04-29T03:39:26;100924.59;;;10.58;81.91
48244;BME280;34053;51.088;6.572;2023-04-29T03:42:01;100931.31;;;10.70;81.53
48244;BME280;34053;51.088;6.572;2023-04-29T03:44:32;100936.66;;;10.65;81.10
48244;BME280;34053;51.088;6.572;2023-04-29T03:47:02;100933.72;;;10.42;82.17
48244;BME280;34053;51.088;6.572;2023-04-29T03:49:33;100936.97;;;10.89;79.59
48244;BME280;34053;51.088;6.572;2023-04-29T03:52:03;100933.44;;;10.90;78.98
48244;BME280;34053;51.088;6.572;2023-04-29T03:54:34;100938.91;;;10.82;79.52
48244;BME280;34053;51.088;6.572;2023-04-29T03:57:04;100937.75;;;10.57;81.45
48244;BME280;34053;51.088;6.572;2023-04-29T03:59:35;100937.53;;;10.66;80.49
48244;BME280;34053;51.088;6.572;2023-04-29T04:02:06;100941.34;;;10.52;81.20
48244;BME280;34053;51.088;6.572;2023-04-29T04:04:36;100941.00;;;10.27;82.33
48244;BME280;34053;51.088;6.572;2023-04-29T04:07:07;100949.03;;;10.19;82.81
48244;BME280;34053;51.088;6.572;2023-04-29T04:09:37;100950.00;;;10.56;80.93
48244;BME280;34053;51.088;6.572;2023-04-29T04:12:08;100953.31;;;10.64;80.63
48244;BME280;34053;51.088;6.572;2023-04-29T04:14:38;100952.91;;;10.44;82.06
48244;BME280;34053;51.088;6.572;2023-04-29T04:17:08;100960.19;;;10.70;80.49
48244;BME280;34053;51.088;6.572;2023-04-29T04:19:39;100960.50;;;10.56;81.39
48244;BME280;34053;51.088;6.572;2023-04-29T04:22:09;100961.28;;;10.61;81.80
48244;BME280;34053;51.088;6.572;2023-04-29T04:24:41;100967.06;;;10.35;83.01
48244;BME280;34053;51.088;6.572;2023-04-29T04:27:11;100962.25;;;10.15;84.90
48244;BME280;34053;51.088;6.572;2023-04-29T04:29:42;100967.03;;;10.36;83.46
48244;BME280;34053;51.088;6.572;2023-04-29T04:32:13;100961.97;;;10.68;81.48
48244;BME280;34053;51.088;6.572;2023-04-29T04:34:43;100977.47;;;10.41;83.18
48244;BME280;34053;51.088;6.572;2023-04-29T04:37:14;100973.63;;;10.15;84.57
48244;BME280;34053;51.088;6.572;2023-04-29T04:39:44;100980.97;;;10.40;83.51
48244;BME280;34053;51.088;6.572;2023-04-29T04:42:15;100985.16;;;10.49;82.37
48244;BME280;34053;51.088;6.572;2023-04-29T04:44:45;100982.88;;;10.30;83.88
48244;BME280;34053;51.088;6.572;2023-04-29T04:47:21;100989.56;;;10.47;83.08
48244;BME280;34053;51.088;6.572;2023-04-29T04:49:52;100989.94;;;10.28;84.18
48244;BME280;34053;51.088;6.572;2023-04-29T04:52:30;100993.28;;;10.36;83.31
48244;BME280;34053;51.088;6.572;2023-04-29T04:55:12;101002.03;;;10.35;84.22
48244;BME280;34053;51.088;6.572;2023-04-29T04:57:43;101002.09;;;10.32;84.02
48244;BME280;34053;51.088;6.572;2023-04-29T05:00:13;101001.56;;;10.15;85.30
48244;BME280;34053;51.088;6.572;2023-04-29T05:02:44;101009.63;;;10.49;82.55
48244;BME280;34053;51.088;6.572;2023-04-29T05:05:15;101017.03;;;10.29;84.05
48244;BME280;34053;51.088;6.572;2023-04-29T05:07:45;101014.91;;;10.48;83.35
48244;BME280;34053;51.088;6.572;2023-04-29T05:10:16;101021.72;;;10.57;82.00
48244;BME280;34053;51.088;6.572;2023-04-29T05:12:46;101022.91;;;10.42;83.37
48244;BME280;34053;51.088;6.572;2023-04-29T05:15:17;101030.50;;;10.12;85.00
48244;BME280;34053;51.088;6.572;2023-04-29T05:17:48;101029.16;;;10.34;83.84
48244;BME280;34053;51.088;6.572;2023-04-29T05:20:19;101035.88;;;10.48;82.90
48244;BME280;34053;51.088;6.572;2023-04-29T05:22:50;101035.03;;;10.46;82.81
48244;BME280;34053;51.088;6.572;2023-04-29T05:25:21;101031.47;;;10.50;82.64
48244;BME280;34053;51.088;6.572;2023-04-29T05:27:51;101037.19;;;10.69;81.11
48244;BME280;34053;51.088;6.572;2023-04-29T05:30:22;101040.38;;;10.82;80.25
48244;BME280;34053;51.088;6.572;2023-04-29T05:32:53;101034.63;;;10.66;81.24
48244;BME280;34053;51.088;6.572;2023-04-29T05:35:23;101036.44;;;10.62;82.17
48244;BME280;34053;51.088;6.572;2023-04-29T05:37:54;101039.53;;;10.41;83.04
48244;BME280;34053;51.088;6.572;2023-04-29T05:40:25;101046.06;;;10.19;83.83
48244;BME280;34053;51.088;6.572;2023-04-29T05:42:55;101053.53;;;10.39;82.52
48244;BME280;34053;51.088;6.572;2023-04-29T05:45:25;101050.06;;;10.39;82.66
48244;BME280;34053;51.088;6.572;2023-04-29T05:47:56;101051.72;;;10.45;82.71
48244;BME280;34053;51.088;6.572;2023-04-29T05:50:26;101055.03;;;10.53;81.83
48244;BME280;34053;51.088;6.572;2023-04-29T05:52:57;101068.41;;;10.41;83.51
48244;BME280;34053;51.088;6.572;2023-04-29T05:55:27;101066.94;;;10.24;84.04
48244;BME280;34053;51.088;6.572;2023-04-29T05:57:58;101077.22;;;10.35;84.36
48244;BME280;34053;51.088;6.572;2023-04-29T06:00:28;101074.84;;;10.22;84.83
48244;BME280;34053;51.088;6.572;2023-04-29T06:02:59;101082.28;;;10.46;83.32
48244;BME280;34053;51.088;6.572;2023-04-29T06:05:29;101083.91;;;10.53;82.73
48244;BME280;34053;51.088;6.572;2023-04-29T06:08:00;101091.53;;;10.20;85.35
48244;BME280;34053;51.088;6.572;2023-04-29T06:10:30;101097.97;;;10.03;86.71
48244;BME280;34053;51.088;6.572;2023-04-29T06:13:02;101101.75;;;10.32;84.97
48244;BME280;34053;51.088;6.572;2023-04-29T06:15:32;101104.63;;;10.65;81.77
48244;BME280;34053;51.088;6.572;2023-04-29T06:18:03;101107.69;;;10.42;84.52
48244;BME280;34053;51.088;6.572;2023-04-29T06:20:36;101110.66;;;10.69;81.57
48244;BME280;34053;51.088;6.572;2023-04-29T06:23:06;101109.03;;;10.63;82.60
48244;BME280;34053;51.088;6.572;2023-04-29T06:25:37;101118.16;;;10.45;83.52
48244;BME280;34053;51.088;6.572;2023-04-29T06:28:08;101115.75;;;10.77;81.51
48244;BME280;34053;51.088;6.572;2023-04-29T06:30:38;101118.28;;;10.80;82.03
48244;BME280;34053;51.088;6.572;2023-04-29T06:33:09;101115.31;;;10.95;79.90
48244;BME280;34053;51.088;6.572;2023-04-29T06:35:39;101113.72;;;10.90;80.20
48244;BME280;34053;51.088;6.572;2023-04-29T06:38:10;101124.00;;;10.58;82.36
48244;BME280;34053;51.088;6.572;2023-04-29T06:40:41;101123.81;;;10.67;81.51
48244;BME280;34053;51.088;6.572;2023-04-29T06:43:11;101127.00;;;10.82;81.15
48244;BME280;34053;51.088;6.572;2023-04-29T06:45:45;101132.72;;;10.60;81.79
48244;BME280;34053;51.088;6.572;2023-04-29T06:48:15;101136.25;;;10.59;82.44
48244;BME280;34053;51.088;6.572;2023-04-29T06:50:54;101136.19;;;10.61;82.84
48244;BME280;34053;51.088;6.572;2023-04-29T06:53:25;101143.00;;;10.71;81.75
48244;BME280;34053;51.088;6.572;2023-04-29T06:55:55;101143.53;;;10.45;81.70
48244;BME280;34053;51.088;6.572;2023-04-29T06:58:26;101147.34;;;10.70;80.29
48244;BME280;34053;51.088;6.572;2023-04-29T07:00:56;101149.56;;;10.48;81.65
48244;BME280;34053;51.088;6.572;2023-04-29T07:03:27;101152.84;;;10.60;81.17
48244;BME280;34053;51.088;6.572;2023-04-29T07:05:57;101147.59;;;10.60;81.11
48244;BME280;34053;51.088;6.572;2023-04-29T07:08:28;101156.06;;;10.74;80.54
48244;BME280;34053;51.088;6.572;2023-04-29T07:10:58;101161.19;;;10.79;79.78
48244;BME280;34053;51.088;6.572;2023-04-29T07:13:29;101165.16;;;10.56;80.76
48244;BME280;34053;51.088;6.572;2023-04-29T07:15:59;101171.19;;;10.61;80.43
48244;BME280;34053;51.088;6.572;2023-04-29T07:18:29;101180.13;;;10.51;81.14
48244;BME280;34053;51.088;6.572;2023-04-29T07:21:01;101183.78;;;10.42;80.19
48244;BME280;34053;51.088;6.572;2023-04-29T07:23:31;101181.59;;;10.64;79.20
48244;BME280;34053;51.088;6.572;2023-04-29T07:26:12;101187.16;;;10.49;79.75
48244;BME280;34053;51.088;6.572;2023-04-29T07:28:43;101176.13;;;10.77;78.29
48244;BME280;34053;51.088;6.572;2023-04-29T07:31:14;101191.97;;;10.70;78.63
48244;BME280;34053;51.088;6.572;2023-04-29T07:33:45;101198.63;;;10.87;77.85
48244;BME280;34053;51.088;6.572;2023-04-29T07:36:16;101206.91;;;10.67;78.90
48244;BME280;34053;51.088;6.572;2023-04-29T07:38:47;101209.59;;;10.65;78.63
48244;BME280;34053;51.088;6.572;2023-04-29T07:41:17;101207.72;;;10.70;78.54
48244;BME280;34053;51.088;6.572;2023-04-29T07:43:48;101206.78;;;10.75;78.16
48244;BME280;34053;51.088;6.572;2023-04-29T07:46:18;101210.91;;;10.86;77.14
48244;BME280;34053;51.088;6.572;2023-04-29T07:48:49;101209.84;;;10.95;77.08
48244;BME280;34053;51.088;6.572;2023-04-29T07:51:44;101217.63;;;11.00;76.07
48244;BME280;34053;51.088;6.572;2023-04-29T07:54:15;101219.63;;;10.89;76.94
48244;BME280;34053;51.088;6.572;2023-04-29T07:56:45;101215.31;;;10.86;77.05
48244;BME280;34053;51.088;6.572;2023-04-29T07:59:16;101213.69;;;10.79;76.21
48244;BME280;34053;51.088;6.572;2023-04-29T08:01:46;101217.34;;;11.14;75.79
48244;BME280;34053;51.088;6.572;2023-04-29T08:04:17;101222.59;;;11.15;75.80
48244;BME280;34053;51.088;6.572;2023-04-29T08:06:47;101229.47;;;11.20;75.15
48244;BME280;34053;51.088;6.572;2023-04-29T08:09:19;101225.41;;;11.05;76.02
48244;BME280;34053;51.088;6.572;2023-04-29T08:11:50;101230.56;;;11.11;75.85
48244;BME280;34053;51.088;6.572;2023-04-29T08:14:20;101230.75;;;11.01;76.30
48244;BME280;34053;51.088;6.572;2023-04-29T08:16:51;101238.19;;;11.22;75.08
48244;BME280;34053;51.088;6.572;2023-04-29T08:19:21;101226.72;;;11.27;75.36
48244;BME280;34053;51.088;6.572;2023-04-29T08:21:52;101233.00;;;11.18;75.04
48244;BME280;34053;51.088;6.572;2023-04-29T08:24:22;101236.63;;;11.13;76.18
48244;BME280;34053;51.088;6.572;2023-04-29T08:26:53;101238.31;;;11.17;75.39
48244;BME280;34053;51.088;6.572;2023-04-29T08:29:23;101239.47;;;11.02;75.45
48244;BME280;34053;51.088;6.572;2023-04-29T08:32:03;101241.69;;;11.22;75.06
48244;BME280;34053;51.088;6.572;2023-04-29T08:34:34;101237.63;;;11.07;75.82
48244;BME280;34053;51.088;6.572;2023-04-29T08:37:06;101247.94;;;11.16;75.50
48244;BME280;34053;51.088;6.572;2023-04-29T08:39:37;101249.50;;;11.25;75.54
48244;BME280;34053;51.088;6.572;2023-04-29T08:42:10;101247.81;;;11.21;75.59
48244;BME280;34053;51.088;6.572;2023-04-29T08:44:41;101247.19;;;11.50;74.55
48244;BME280;34053;51.088;6.572;2023-04-29T08:47:13;101255.75;;;11.60;74.04
48244;BME280;34053;51.088;6.572;2023-04-29T08:49:43;101260.78;;;11.30;74.80
48244;BME280;34053;51.088;6.572;2023-04-29T08:52:14;101261.22;;;11.09;75.46
48244;BME280;34053;51.088;6.572;2023-04-29T08:54:44;101269.09;;;11.51;74.24
48244;BME280;34053;51.088;6.572;2023-04-29T08:57:15;101265.47;;;11.55;74.55
48244;BME280;34053;51.088;6.572;2023-04-29T08:59:45;101260.72;;;11.73;73.92
48244;BME280;34053;51.088;6.572;2023-04-29T09:02:16;101267.56;;;11.80;73.79
48244;BME280;34053;51.088;6.572;2023-04-29T09:07:21;101267.66;;;11.75;74.28
48244;BME280;34053;51.088;6.572;2023-04-29T09:09:52;101272.66;;;11.86;73.21
48244;BME280;34053;51.088;6.572;2023-04-29T09:12:24;101272.75;;;11.83;73.35
48244;BME280;34053;51.088;6.572;2023-04-29T09:14:56;101269.63;;;12.05;72.96
48244;BME280;34053;51.088;6.572;2023-04-29T09:17:43;101274.63;;;12.16;72.41
48244;BME280;34053;51.088;6.572;2023-04-29T09:23:01;101267.16;;;12.35;71.40
48244;BME280;34053;51.088;6.572;2023-04-29T09:25:56;101277.66;;;12.35;71.57
48244;BME280;34053;51.088;6.572;2023-04-29T09:28:39;101278.34;;;12.41;70.95
48244;BME280;34053;51.088;6.572;2023-04-29T09:31:25;101282.50;;;12.16;70.38
48244;BME280;34053;51.088;6.572;2023-04-29T09:33:56;101282.66;;;12.44;70.91
48244;BME280;34053;51.088;6.572;2023-04-29T09:39:08;101291.78;;;12.31;70.63
48244;BME280;34053;51.088;6.572;2023-04-29T09:44:32;101297.00;;;12.34;70.55
48244;BME280;34053;51.088;6.572;2023-04-29T09:47:08;101296.00;;;12.38;70.68
48244;BME280;34053;51.088;6.572;2023-04-29T09:49:39;101306.25;;;12.49;70.26
48244;BME280;34053;51.088;6.572;2023-04-29T09:52:12;101310.50;;;12.54;70.20
48244;BME280;34053;51.088;6.572;2023-04-29T09:54:43;101318.50;;;12.51;70.47
48244;BME280;34053;51.088;6.572;2023-04-29T09:57:14;101319.91;;;12.28;71.14
48244;BME280;34053;51.088;6.572;2023-04-29T09:59:45;101318.94;;;12.33;71.14
48244;BME280;34053;51.088;6.572;2023-04-29T10:02:16;101319.13;;;12.25;71.38
48244;BME280;34053;51.088;6.572;2023-04-29T10:04:52;101324.38;;;12.26;71.58
48244;BME280;34053;51.088;6.572;2023-04-29T10:07:24;101325.84;;;12.37;70.91
48244;BME280;34053;51.088;6.572;2023-04-29T10:09:56;101333.91;;;12.31;71.32
48244;BME280;34053;51.088;6.572;2023-04-29T10:12:26;101323.13;;;12.05;72.39
48244;BME280;34053;51.088;6.572;2023-04-29T10:17:47;101344.84;;;12.12;72.24
48244;BME280;34053;51.088;6.572;2023-04-29T10:20:23;101340.69;;;12.03;72.18
48244;BME280;34053;51.088;6.572;2023-04-29T10:22:54;101341.31;;;12.13;72.07
48244;BME280;34053;51.088;6.572;2023-04-29T10:25:26;101337.69;;;12.19;71.83
48244;BME280;34053;51.088;6.572;2023-04-29T10:27:59;101338.19;;;11.95;72.33
48244;BME280;34053;51.088;6.572;2023-04-29T10:30:30;101337.63;;;11.81;73.86
48244;BME280;34053;51.088;6.572;2023-04-29T10:33:02;101346.38;;;12.22;71.47
48244;BME280;34053;51.088;6.572;2023-04-29T10:35:33;101349.31;;;12.10;72.68
48244;BME280;34053;51.088;6.572;2023-04-29T10:38:09;101347.25;;;12.23;71.87
48244;BME280;34053;51.088;6.572;2023-04-29T10:40:44;101353.78;;;12.05;72.05
48244;BME280;34053;51.088;6.572;2023-04-29T10:43:28;101353.09;;;11.98;72.52
48244;BME280;34053;51.088;6.572;2023-04-29T10:51:43;101347.78;;;12.36;71.20
48244;BME280;34053;51.088;6.572;2023-04-29T10:54:15;101355.00;;;12.27;71.16
48244;BME280;34053;51.088;6.572;2023-04-29T10:56:46;101358.69;;;12.20;71.89
48244;BME280;34053;51.088;6.572;2023-04-29T10:59:20;101354.94;;;12.31;71.31
48244;BME280;34053;51.088;6.572;2023-04-29T11:01:51;101358.22;;;12.03;71.98
48244;BME280;34053;51.088;6.572;2023-04-29T11:04:22;101359.09;;;12.03;72.66
48244;BME280;34053;51.088;6.572;2023-04-29T11:06:55;101357.16;;;12.11;72.20
48244;BME280;34053;51.088;6.572;2023-04-29T11:09:27;101354.22;;;12.24;71.50
48244;BME280;34053;51.088;6.572;2023-04-29T11:12:04;101349.50;;;12.38;70.85
48244;BME280;34053;51.088;6.572;2023-04-29T11:14:42;101358.25;;;12.39;71.17
48244;BME280;34053;51.088;6.572;2023-04-29T11:17:18;101360.00;;;12.40;71.02
48244;BME280;34053;51.088;6.572;2023-04-29T11:19:52;101361.00;;;12.34;71.26
48244;BME280;34053;51.088;6.572;2023-04-29T11:22:26;101354.41;;;12.52;70.42
48244;BME280;34053;51.088;6.572;2023-04-29T11:25:02;101363.84;;;12.61;70.28
48244;BME280;34053;51.088;6.572;2023-04-29T11:27:35;101370.78;;;12.27;71.50
48244;BME280;34053;51.088;6.572;2023-04-29T11:30:06;101366.88;;;12.46;71.15
48244;BME280;34053;51.088;6.572;2023-04-29T11:32:40;101364.56;;;12.32;71.29
48244;BME280;34053;51.088;6.572;2023-04-29T11:35:16;101371.38;;;12.40;71.17
48244;BME280;34053;51.088;6.572;2023-04-29T11:37:47;101375.81;;;12.01;71.92
48244;BME280;34053;51.088;6.572;2023-04-29T11:40:17;101374.34;;;12.26;71.48
48244;BME280;34053;51.088;6.572;2023-04-29T11:42:48;101372.47;;;12.32;70.73
48244;BME280;34053;51.088;6.572;2023-04-29T11:45:19;101365.06;;;12.48;70.84
48244;BME280;34053;51.088;6.572;2023-04-29T11:47:49;101362.00;;;12.28;71.69
48244;BME280;34053;51.088;6.572;2023-04-29T11:50:20;101363.47;;;12.40;71.26
48244;BME280;34053;51.088;6.572;2023-04-29T11:52:50;101367.44;;;12.57;70.82
48244;BME280;34053;51.088;6.572;2023-04-29T11:55:21;101366.44;;;12.63;70.66
48244;BME280;34053;51.088;6.572;2023-04-29T11:57:51;101368.97;;;12.67;70.74
48244;BME280;34053;51.088;6.572;2023-04-29T12:00:23;101375.13;;;12.66;70.42
48244;BME280;34053;51.088;6.572;2023-04-29T12:02:53;101375.00;;;12.72;70.80
48244;BME280;34053;51.088;6.572;2023-04-29T12:05:25;101371.41;;;12.75;70.46
48244;BME280;34053;51.088;6.572;2023-04-29T12:07:55;101369.28;;;12.89;69.96
48244;BME280;34053;51.088;6.572;2023-04-29T12:10:26;101371.84;;;12.91;70.04
48244;BME280;34053;51.088;6.572;2023-04-29T12:12:56;101371.72;;;12.97;70.12
48244;BME280;34053;51.088;6.572;2023-04-29T12:15:29;101368.19;;;12.97;70.16
48244;BME280;34053;51.088;6.572;2023-04-29T12:18:00;101365.31;;;13.06;69.37
48244;BME280;34053;51.088;6.572;2023-04-29T12:20:31;101368.16;;;12.98;69.93
48244;BME280;34053;51.088;6.572;2023-04-29T12:23:15;101365.91;;;13.17;69.40
48244;BME280;34053;51.088;6.572;2023-04-29T12:25:50;101370.16;;;13.21;69.09
48244;BME280;34053;51.088;6.572;2023-04-29T12:28:21;101367.41;;;13.26;69.18
48244;BME280;34053;51.088;6.572;2023-04-29T12:30:53;101368.34;;;13.23;69.32
48244;BME280;34053;51.088;6.572;2023-04-29T12:33:25;101373.44;;;13.30;69.12
48244;BME280;34053;51.088;6.572;2023-04-29T12:35:57;101376.03;;;13.31;69.42
48244;BME280;34053;51.088;6.572;2023-04-29T12:38:31;101369.13;;;13.27;69.31
48244;BME280;34053;51.088;6.572;2023-04-29T12:41:02;101378.13;;;13.20;68.94
48244;BME280;34053;51.088;6.572;2023-04-29T12:43:36;101366.28;;;13.02;69.16
48244;BME280;34053;51.088;6.572;2023-04-29T12:46:07;101375.59;;;13.15;69.53
48244;BME280;34053;51.088;6.572;2023-04-29T12:48:39;101375.09;;;13.34;68.95
48244;BME280;34053;51.088;6.572;2023-04-29T12:51:10;101369.91;;;13.31;68.99
48244;BME280;34053;51.088;6.572;2023-04-29T12:53:41;101376.72;;;13.38;69.03
48244;BME280;34053;51.088;6.572;2023-04-29T12:56:11;101374.91;;;13.42;68.66
48244;BME280;34053;51.088;6.572;2023-04-29T12:58:42;101380.75;;;13.51;68.64
48244;BME280;34053;51.088;6.572;2023-04-29T13:01:12;101382.41;;;13.56;67.90
48244;BME280;34053;51.088;6.572;2023-04-29T13:03:43;101381.41;;;13.60;68.39
48244;BME280;34053;51.088;6.572;2023-04-29T13:06:14;101384.75;;;13.66;68.40
48244;BME280;34053;51.088;6.572;2023-04-29T13:08:49;101385.31;;;13.76;68.24
48244;BME280;34053;51.088;6.572;2023-04-29T13:11:30;101389.09;;;13.67;66.31
48244;BME280;34053;51.088;6.572;2023-04-29T13:14:01;101387.31;;;13.68;67.62
48244;BME280;34053;51.088;6.572;2023-04-29T13:16:32;101382.75;;;13.75;66.41
48244;BME280;34053;51.088;6.572;2023-04-29T13:19:03;101384.34;;;13.80;67.55
48244;BME280;34053;51.088;6.572;2023-04-29T13:21:33;101380.03;;;13.76;66.28
48244;BME280;34053;51.088;6.572;2023-04-29T13:24:04;101384.34;;;13.80;65.43
48244;BME280;34053;51.088;6.572;2023-04-29T13:26:34;101374.34;;;13.90;66.66
48244;BME280;34053;51.088;6.572;2023-04-29T13:29:05;101378.38;;;14.02;66.17
48244;BME280;34053;51.088;6.572;2023-04-29T13:31:36;101375.75;;;14.02;66.67
48244;BME280;34053;51.088;6.572;2023-04-29T13:34:06;101376.00;;;14.23;66.00
48244;BME280;34053;51.088;6.572;2023-04-29T13:36:37;101373.78;;;14.37;65.41
48244;BME280;34053;51.088;6.572;2023-04-29T13:39:07;101372.03;;;14.36;65.27
48244;BME280;34053;51.088;6.572;2023-04-29T13:41:38;101375.97;;;14.51;63.03